createdAt,value
2019-01-19T00:00:25.524Z,32.50
2019-01-19T00:01:25.757Z,32.00
2019-01-19T00:03:19.098Z,32.70
2019-01-19T00:04:19.088Z,32.90
2019-01-19T00:06:12.220Z,30.10
2019-01-19T00:07:12.203Z,31.30
2019-01-19T00:09:06.074Z,31.50
2019-01-19T00:10:05.827Z,33.40
2019-01-19T00:11:58.902Z,34.10
2019-01-19T00:12:59.149Z,36.50
2019-01-19T00:14:52.722Z,35.80
2019-01-19T00:15:52.522Z,33.90
2019-01-19T00:17:45.583Z,38.20
2019-01-19T00:18:45.566Z,38.40
2019-01-19T00:20:39.152Z,38.00
2019-01-19T00:21:38.914Z,36.70
2019-01-19T00:23:32.540Z,34.90
2019-01-19T00:24:32.483Z,34.50
2019-01-19T00:26:25.835Z,35.70
2019-01-19T00:27:25.628Z,34.50
2019-01-19T00:29:18.943Z,36.70
2019-01-19T00:30:19.172Z,34.40
2019-01-19T00:32:12.826Z,35.30
2019-01-19T00:33:12.565Z,37.80
2019-01-19T00:35:05.679Z,37.30
2019-01-19T00:36:05.661Z,37.80
2019-01-19T00:37:59.439Z,41.60
2019-01-19T00:38:58.977Z,43.90
2019-01-19T00:40:52.372Z,39.70
2019-01-19T00:41:52.583Z,38.30
2019-01-19T00:43:45.931Z,39.40
2019-01-19T00:44:45.699Z,40.10
2019-01-19T00:46:39.369Z,43.20
2019-01-19T00:47:39.001Z,44.40
2019-01-19T00:49:33.072Z,39.50
2019-01-19T00:50:33.144Z,39.30
2019-01-19T00:52:26.243Z,40.00
2019-01-19T00:53:26.248Z,42.40
2019-01-19T00:55:19.810Z,43.10
2019-01-19T00:56:19.576Z,42.10
2019-01-19T00:58:13.171Z,44.10
2019-01-19T00:59:12.896Z,40.10
2019-01-19T01:01:06.690Z,42.50
2019-01-19T01:02:06.295Z,43.60
2019-01-19T01:03:59.849Z,41.50
2019-01-19T01:04:59.903Z,41.40
2019-01-19T01:06:53.470Z,46.60
2019-01-19T01:07:53.209Z,48.90
2019-01-19T01:09:46.538Z,52.30
2019-01-19T01:10:46.334Z,53.10
2019-01-19T01:12:39.865Z,47.40
2019-01-19T01:13:39.671Z,49.10
2019-01-19T01:15:33.270Z,48.50
2019-01-19T01:16:33.020Z,52.30
2019-01-19T01:18:26.821Z,58.00
2019-01-19T01:19:26.547Z,51.40
2019-01-19T01:21:19.680Z,58.30
2019-01-19T01:22:19.926Z,58.60
2019-01-19T01:24:13.271Z,65.10
2019-01-19T01:25:13.009Z,56.90
2019-01-19T01:27:06.382Z,68.90
2019-01-19T01:28:06.381Z,70.10
2019-01-19T01:30:00.251Z,64.20
2019-01-19T01:30:59.983Z,66.00
2019-01-19T01:32:53.278Z,66.40
2019-01-19T01:33:53.039Z,67.40
2019-01-19T01:35:46.656Z,82.20
2019-01-19T01:36:46.426Z,76.90
2019-01-19T01:38:39.980Z,75.60
2019-01-19T01:39:39.734Z,72.10
2019-01-19T01:41:32.816Z,76.10
2019-01-19T01:42:32.820Z,73.90
2019-01-19T01:44:25.946Z,76.50
2019-01-19T01:45:26.198Z,68.00
2019-01-19T01:47:19.597Z,69.30
2019-01-19T01:48:19.301Z,83.50
2019-01-19T01:50:12.886Z,73.00
2019-01-19T01:51:12.888Z,73.90
2019-01-19T01:53:05.989Z,79.30
2019-01-19T01:54:05.527Z,76.60
2019-01-19T01:55:59.078Z,73.70
2019-01-19T01:56:59.075Z,76.50
2019-01-19T01:58:52.670Z,85.60
2019-01-19T01:59:52.405Z,88.50
2019-01-19T02:01:45.583Z,83.00
2019-01-19T02:02:45.564Z,83.40
2019-01-19T02:04:39.327Z,90.40
2019-01-19T02:05:40.440Z,84.70
2019-01-19T02:07:32.221Z,93.30
2019-01-19T02:08:32.512Z,85.80
2019-01-19T02:10:26.078Z,91.50
2019-01-19T02:11:25.818Z,98.20
2019-01-19T02:13:19.191Z,90.00
2019-01-19T02:14:19.156Z,91.30
2019-01-19T02:16:12.531Z,86.90
2019-01-19T02:17:12.255Z,89.00
2019-01-19T02:19:05.657Z,96.00
2019-01-19T02:20:05.864Z,96.30
2019-01-19T02:21:59.178Z,80.50
2019-01-19T02:22:59.203Z,87.10
2019-01-19T02:24:51.855Z,93.20
2019-01-19T02:25:51.832Z,84.70
2019-01-19T02:27:45.385Z,81.80
2019-01-19T02:28:45.417Z,89.30
2019-01-19T02:30:38.508Z,100.70
2019-01-19T02:31:38.780Z,101.30
2019-01-19T02:33:32.300Z,102.20
2019-01-19T02:34:31.844Z,110.80
2019-01-19T02:36:24.964Z,103.70
2019-01-19T02:37:24.970Z,101.70
2019-01-19T02:39:18.580Z,104.00
2019-01-19T02:40:18.082Z,100.00
2019-01-19T02:42:11.627Z,94.40
2019-01-19T02:43:11.647Z,96.50
2019-01-19T02:45:04.999Z,96.60
2019-01-19T02:46:05.033Z,97.80
2019-01-19T02:47:58.115Z,101.10
2019-01-19T02:48:58.359Z,98.20
2019-01-19T02:50:51.923Z,98.00
2019-01-19T02:51:51.440Z,101.50
2019-01-19T02:53:44.806Z,102.00
2019-01-19T02:54:44.785Z,100.30
2019-01-19T02:56:38.522Z,103.10
2019-01-19T02:57:38.144Z,93.00
2019-01-19T02:59:31.516Z,94.00
2019-01-19T03:00:31.462Z,100.20
2019-01-19T03:02:25.076Z,95.70
2019-01-19T03:03:25.101Z,92.40
2019-01-19T03:05:18.426Z,99.40
2019-01-19T03:06:18.421Z,83.60
2019-01-19T03:08:11.954Z,92.50
2019-01-19T03:09:11.753Z,97.00
2019-01-19T03:11:05.100Z,91.70
2019-01-19T03:12:04.831Z,93.50
2019-01-19T03:13:58.678Z,94.00
2019-01-19T03:14:58.444Z,87.80
2019-01-19T03:16:51.568Z,89.70
2019-01-19T03:17:51.517Z,92.00
2019-01-19T03:19:45.319Z,93.30
2019-01-19T03:20:44.854Z,92.10
2019-01-19T03:22:38.510Z,92.50
2019-01-19T03:23:38.444Z,92.60
2019-01-19T03:25:31.771Z,83.80
2019-01-19T03:26:31.579Z,86.30
2019-01-19T03:28:25.161Z,84.80
2019-01-19T03:29:24.919Z,91.60
2019-01-19T03:31:18.501Z,92.60
2019-01-19T03:32:18.513Z,91.10
2019-01-19T03:34:11.858Z,88.20
2019-01-19T03:35:11.847Z,80.10
2019-01-19T03:37:05.456Z,90.80
2019-01-19T03:38:05.161Z,92.00
2019-01-19T03:39:58.030Z,81.10
2019-01-19T03:40:57.787Z,90.80
2019-01-19T03:42:51.588Z,79.50
2019-01-19T03:43:51.143Z,76.70
2019-01-19T03:45:44.746Z,76.00
2019-01-19T03:46:44.511Z,76.80
2019-01-19T03:48:38.009Z,77.20
2019-01-19T03:49:37.862Z,78.40
2019-01-19T03:51:31.465Z,77.30
2019-01-19T03:52:31.440Z,72.90
2019-01-19T03:54:24.944Z,80.40
2019-01-19T03:55:24.522Z,73.60
2019-01-19T03:57:17.866Z,76.30
2019-01-19T03:58:17.864Z,76.50
2019-01-19T04:00:11.448Z,76.80
2019-01-19T04:01:11.507Z,73.80
2019-01-19T04:03:04.565Z,73.60
2019-01-19T04:04:04.595Z,74.30
2019-01-19T04:05:58.419Z,66.40
2019-01-19T04:06:57.941Z,69.70
2019-01-19T04:08:51.538Z,73.60
2019-01-19T04:09:51.531Z,68.10
2019-01-19T04:11:45.102Z,75.90
2019-01-19T04:12:44.604Z,69.10
2019-01-19T04:14:37.967Z,68.80
2019-01-19T04:15:38.002Z,71.00
2019-01-19T04:17:31.536Z,66.10
2019-01-19T04:18:31.296Z,68.60
2019-01-19T04:20:24.871Z,68.70
2019-01-19T04:21:24.634Z,61.30
2019-01-19T04:23:18.199Z,62.20
2019-01-19T04:24:18.269Z,67.80
2019-01-19T04:26:11.595Z,65.30
2019-01-19T04:27:11.320Z,63.00
2019-01-19T04:29:04.936Z,61.20
2019-01-19T04:30:04.887Z,64.30
2019-01-19T04:31:58.022Z,63.30
2019-01-19T04:32:58.051Z,63.50
2019-01-19T04:34:51.836Z,67.00
2019-01-19T04:35:51.611Z,65.80
2019-01-19T04:37:44.931Z,60.10
2019-01-19T04:38:44.708Z,62.10
2019-01-19T04:40:38.489Z,61.20
2019-01-19T04:41:38.281Z,61.80
2019-01-19T04:43:31.380Z,59.70
2019-01-19T04:44:31.401Z,54.60
2019-01-19T04:46:24.951Z,62.00
2019-01-19T04:47:25.013Z,57.40
2019-01-19T04:49:18.324Z,59.30
2019-01-19T04:50:18.052Z,58.90
2019-01-19T04:52:12.972Z,53.80
2019-01-19T04:53:12.179Z,55.30
2019-01-19T04:55:04.813Z,58.80
2019-01-19T04:56:05.061Z,55.30
2019-01-19T04:57:58.367Z,57.90
2019-01-19T04:58:58.154Z,57.90
2019-01-19T05:00:51.531Z,54.70
2019-01-19T05:01:51.485Z,51.90
2019-01-19T05:03:45.071Z,57.50
2019-01-19T05:04:45.073Z,55.30
2019-01-19T05:06:38.224Z,55.30
2019-01-19T05:07:38.452Z,53.70
2019-01-19T05:09:32.003Z,52.10
2019-01-19T05:10:31.735Z,51.00
2019-01-19T05:12:24.859Z,52.30
2019-01-19T05:13:25.158Z,47.70
2019-01-19T05:15:18.453Z,54.30
2019-01-19T05:16:18.457Z,50.70
2019-01-19T05:18:11.804Z,50.00
2019-01-19T05:19:11.577Z,52.40
2019-01-19T05:21:05.389Z,52.20
2019-01-19T05:22:05.130Z,53.10
2019-01-19T05:23:58.453Z,49.60
2019-01-19T05:24:58.454Z,50.20
2019-01-19T05:26:51.836Z,45.70
2019-01-19T05:27:51.797Z,52.60
2019-01-19T05:29:44.965Z,52.40
2019-01-19T05:30:45.187Z,48.80
2019-01-19T05:32:38.527Z,52.60
2019-01-19T05:33:38.252Z,47.00
2019-01-19T05:35:31.892Z,49.20
2019-01-19T05:36:38.281Z,52.40
2019-01-19T05:38:25.202Z,44.80
2019-01-19T05:39:24.948Z,45.30
2019-01-19T05:41:18.326Z,46.50
2019-01-19T05:42:18.324Z,50.50
2019-01-19T05:44:12.479Z,46.40
2019-01-19T05:45:11.610Z,42.80
2019-01-19T05:47:04.974Z,42.40
2019-01-19T05:48:04.993Z,45.80
2019-01-19T05:49:58.780Z,46.30
2019-01-19T05:50:58.536Z,43.50
2019-01-19T05:52:51.710Z,46.90
2019-01-19T05:53:51.942Z,43.50
2019-01-19T05:55:45.584Z,44.10
2019-01-19T05:56:45.282Z,42.10
2019-01-19T05:58:38.356Z,42.40
2019-01-19T05:59:38.342Z,43.30
2019-01-19T06:01:31.865Z,42.90
2019-01-19T06:02:31.932Z,45.70
2019-01-19T06:04:25.270Z,40.90
2019-01-19T06:05:25.269Z,44.10
2019-01-19T06:07:18.783Z,37.40
2019-01-19T06:08:18.647Z,42.10
2019-01-19T06:10:11.974Z,42.00
2019-01-19T06:11:11.752Z,43.30
2019-01-19T06:13:05.499Z,38.10
2019-01-19T06:14:05.334Z,43.60
2019-01-19T06:15:58.673Z,38.80
2019-01-19T06:16:58.647Z,38.50
2019-01-19T06:18:52.017Z,39.50
2019-01-19T06:19:51.968Z,44.00
2019-01-19T06:21:45.091Z,42.70
2019-01-19T06:22:45.369Z,39.50
2019-01-19T06:24:39.041Z,41.50
2019-01-19T06:25:38.409Z,39.70
2019-01-19T06:27:31.782Z,40.30
2019-01-19T06:28:31.995Z,36.10
2019-01-19T06:30:25.379Z,36.10
2019-01-19T06:31:25.347Z,35.60
2019-01-19T06:33:18.759Z,36.90
2019-01-19T06:34:18.453Z,39.90
2019-01-19T06:36:12.072Z,36.20
2019-01-19T06:37:12.072Z,40.40
2019-01-19T06:39:05.436Z,37.10
2019-01-19T06:40:05.418Z,36.90
2019-01-19T06:41:58.931Z,37.20
2019-01-19T06:42:58.698Z,36.20
2019-01-19T06:44:52.093Z,39.30
2019-01-19T06:45:51.813Z,37.00
2019-01-19T06:47:45.384Z,35.30
2019-01-19T06:48:45.201Z,36.30
2019-01-19T06:50:38.564Z,35.90
2019-01-19T06:51:38.543Z,38.30
2019-01-19T06:53:32.031Z,36.00
2019-01-19T06:54:31.890Z,34.50
2019-01-19T06:56:25.194Z,38.60
2019-01-19T06:57:25.191Z,34.80
2019-01-19T06:59:18.757Z,33.50
2019-01-19T07:00:18.550Z,34.30
2019-01-19T07:02:12.150Z,33.00
2019-01-19T07:03:11.875Z,34.70
2019-01-19T07:05:05.781Z,36.70
2019-01-19T07:06:05.486Z,36.20
2019-01-19T07:07:58.376Z,35.00
2019-01-19T07:08:58.332Z,35.70
2019-01-19T07:10:51.939Z,34.40
2019-01-19T07:11:51.701Z,34.90
2019-01-19T07:13:45.089Z,31.50
2019-01-19T07:14:45.044Z,28.70
2019-01-19T07:16:38.410Z,30.30
2019-01-19T07:17:38.411Z,32.60
2019-01-19T07:19:31.723Z,31.40
2019-01-19T07:20:31.703Z,33.40
2019-01-19T07:22:25.336Z,31.10
2019-01-19T07:23:25.097Z,31.80
2019-01-19T07:25:18.203Z,31.60
2019-01-19T07:26:18.433Z,30.10
2019-01-19T07:28:11.994Z,30.40
2019-01-19T07:29:11.751Z,29.00
2019-01-19T07:31:04.913Z,26.40
2019-01-19T07:32:05.123Z,30.70
2019-01-19T07:33:58.707Z,29.50
2019-01-19T07:34:58.471Z,29.50
2019-01-19T07:36:51.837Z,30.00
2019-01-19T07:37:51.787Z,29.20
2019-01-19T07:39:45.378Z,29.70
2019-01-19T07:40:44.904Z,27.40
2019-01-19T07:42:38.518Z,30.10
2019-01-19T07:43:38.273Z,30.60
2019-01-19T07:45:31.818Z,30.60
2019-01-19T07:46:31.580Z,31.30
2019-01-19T07:48:24.935Z,32.50
2019-01-19T07:49:24.932Z,28.30
2019-01-19T07:51:18.499Z,26.70
2019-01-19T07:52:18.302Z,27.50
2019-01-19T07:54:11.616Z,30.00
2019-01-19T07:55:11.629Z,28.10
2019-01-19T07:57:05.478Z,30.50
2019-01-19T07:58:05.208Z,26.10
2019-01-19T07:59:58.296Z,27.80
2019-01-19T08:00:58.539Z,29.20
2019-01-19T08:02:51.905Z,35.60
2019-01-19T08:03:51.926Z,30.00
2019-01-19T08:05:45.034Z,28.30
2019-01-19T08:06:45.014Z,29.80
2019-01-19T08:08:38.653Z,27.00
2019-01-19T08:09:38.597Z,28.30
2019-01-19T08:11:31.966Z,26.60
2019-01-19T08:12:31.902Z,24.70
2019-01-19T08:14:25.337Z,28.10
2019-01-19T08:15:25.300Z,26.50
2019-01-19T08:17:18.648Z,25.00
2019-01-19T08:18:18.639Z,26.10
2019-01-19T08:20:12.166Z,25.30
2019-01-19T08:21:11.718Z,27.30
2019-01-19T08:23:05.063Z,24.80
2019-01-19T08:24:05.093Z,28.80
2019-01-19T08:25:58.677Z,23.40
2019-01-19T08:26:58.686Z,23.00
2019-01-19T08:28:52.015Z,26.30
2019-01-19T08:29:52.033Z,24.00
2019-01-19T08:31:45.615Z,25.60
2019-01-19T08:32:45.382Z,25.90
2019-01-19T08:34:38.444Z,24.00
2019-01-19T08:35:38.441Z,28.50
2019-01-19T08:37:32.231Z,22.70
2019-01-19T08:38:31.810Z,25.70
2019-01-19T08:40:25.382Z,25.10
2019-01-19T08:41:25.152Z,25.60
2019-01-19T08:43:18.921Z,21.00
2019-01-19T08:44:18.441Z,22.90
2019-01-19T08:46:12.111Z,21.70
2019-01-19T08:47:11.819Z,24.80
2019-01-19T08:49:05.386Z,23.00
2019-01-19T08:50:05.185Z,24.30
2019-01-19T08:51:58.813Z,24.10
2019-01-19T08:52:58.785Z,26.10
2019-01-19T08:54:52.880Z,24.10
2019-01-19T08:55:52.363Z,20.90
2019-01-19T08:57:45.956Z,25.20
2019-01-19T08:58:45.968Z,21.70
2019-01-19T09:00:39.279Z,24.60
2019-01-19T09:01:39.302Z,21.70
2019-01-19T09:03:32.389Z,21.70
2019-01-19T09:04:32.630Z,22.90
2019-01-19T09:06:26.218Z,24.20
2019-01-19T09:07:33.364Z,21.00
2019-01-19T09:09:19.083Z,22.20
2019-01-19T09:10:19.306Z,21.10
2019-01-19T09:12:12.691Z,23.40
2019-01-19T09:13:12.415Z,21.60
2019-01-19T09:15:06.015Z,21.00
2019-01-19T09:16:06.027Z,19.90
2019-01-19T09:17:59.559Z,22.10
2019-01-19T09:18:59.385Z,23.20
2019-01-19T09:20:52.499Z,22.60
2019-01-19T09:21:52.486Z,25.40
2019-01-19T09:23:46.002Z,23.70
2019-01-19T09:24:46.060Z,21.50
2019-01-19T09:26:39.386Z,25.10
2019-01-19T09:27:39.388Z,23.40
2019-01-19T09:29:32.986Z,19.80
2019-01-19T09:30:32.523Z,19.40
2019-01-19T09:32:25.881Z,22.50
2019-01-19T09:33:26.118Z,23.30
2019-01-19T09:35:19.435Z,20.20
2019-01-19T09:36:19.446Z,17.10
2019-01-19T09:38:12.783Z,22.40
2019-01-19T09:39:12.553Z,20.90
2019-01-19T09:41:06.304Z,25.10
2019-01-19T09:42:05.841Z,21.00
2019-01-19T09:43:59.242Z,20.00
2019-01-19T09:44:59.486Z,20.70
2019-01-19T09:46:52.758Z,22.40
2019-01-19T09:47:52.560Z,26.50
2019-01-19T09:49:45.908Z,21.60
2019-01-19T09:50:46.120Z,20.30
2019-01-19T09:52:39.696Z,20.40
2019-01-19T09:53:39.505Z,18.60
2019-01-19T09:55:32.827Z,20.80
2019-01-19T09:56:32.590Z,20.90
2019-01-19T09:58:26.414Z,20.60
2019-01-19T09:59:25.890Z,21.10
2019-01-19T10:01:19.540Z,18.90
2019-01-19T10:02:19.520Z,21.50
2019-01-19T10:04:13.072Z,20.60
2019-01-19T10:05:12.629Z,20.60
2019-01-19T10:07:06.221Z,21.20
2019-01-19T10:08:05.973Z,20.70
2019-01-19T10:09:59.290Z,23.50
2019-01-19T10:10:58.807Z,24.70
2019-01-19T10:12:52.170Z,21.90
2019-01-19T10:13:52.132Z,25.20
2019-01-19T10:15:45.977Z,22.50
2019-01-19T10:16:45.757Z,22.60
2019-01-19T10:18:38.882Z,18.90
2019-01-19T10:19:38.832Z,18.70
2019-01-19T10:21:32.646Z,18.50
2019-01-19T10:22:32.181Z,19.00
2019-01-19T10:24:25.804Z,20.90
2019-01-19T10:25:25.753Z,20.50
2019-01-19T10:27:19.311Z,21.80
2019-01-19T10:28:18.883Z,20.70
2019-01-19T10:30:12.200Z,25.90
2019-01-19T10:31:12.229Z,23.10
2019-01-19T10:33:05.776Z,19.60
2019-01-19T10:34:05.813Z,22.70
2019-01-19T10:35:58.633Z,22.90
2019-01-19T10:36:58.676Z,22.40
2019-01-19T10:38:52.007Z,23.70
2019-01-19T10:39:51.995Z,24.60
2019-01-19T10:41:45.309Z,21.30
2019-01-19T10:42:45.326Z,21.80
2019-01-19T10:44:38.727Z,24.00
2019-01-19T10:45:38.717Z,22.20
2019-01-19T10:47:31.819Z,24.20
2019-01-19T10:48:31.799Z,24.00
2019-01-19T10:50:25.653Z,26.80
2019-01-19T10:51:25.405Z,26.90
2019-01-19T10:53:18.794Z,25.20
2019-01-19T10:54:18.487Z,25.20
2019-01-19T10:56:12.807Z,29.70
2019-01-19T10:57:12.350Z,31.20
2019-01-19T10:59:05.966Z,31.20
2019-01-19T11:00:05.979Z,33.80
2019-01-19T11:01:59.523Z,37.90
2019-01-19T11:02:59.317Z,43.00
2019-01-19T11:04:52.424Z,37.50
2019-01-19T11:05:52.618Z,37.30
2019-01-19T11:07:46.212Z,42.00
2019-01-19T11:08:45.961Z,41.30
2019-01-19T11:10:39.346Z,45.20
2019-01-19T11:11:39.328Z,49.40
2019-01-19T11:13:32.676Z,49.30
2019-01-19T11:14:32.654Z,47.30
2019-01-19T11:16:26.031Z,53.10
2019-01-19T11:17:25.789Z,46.90
2019-01-19T11:19:19.517Z,48.00
2019-01-19T11:20:19.324Z,54.20
2019-01-19T11:22:12.740Z,63.70
2019-01-19T11:23:12.715Z,62.20
2019-01-19T11:25:06.260Z,61.90
2019-01-19T11:26:06.033Z,61.40
2019-01-19T11:27:59.147Z,56.10
2019-01-19T11:28:59.160Z,62.60
2019-01-19T11:30:52.691Z,63.40
2019-01-19T11:31:52.475Z,60.50
2019-01-19T11:33:45.845Z,69.30
2019-01-19T11:34:46.077Z,67.50
2019-01-19T11:36:39.668Z,66.40
2019-01-19T11:37:39.405Z,64.60
2019-01-19T11:39:32.500Z,61.40
2019-01-19T11:40:32.759Z,61.10
2019-01-19T11:42:26.316Z,62.70
2019-01-19T11:43:25.882Z,64.10
2019-01-19T11:45:19.434Z,64.90
2019-01-19T11:46:19.426Z,62.50
2019-01-19T11:48:12.466Z,75.80
2019-01-19T11:49:12.061Z,72.70
2019-01-19T11:51:05.433Z,60.10
2019-01-19T11:52:05.648Z,67.90
2019-01-19T11:53:58.962Z,62.30
2019-01-19T11:54:59.003Z,65.70
2019-01-19T11:56:52.134Z,65.30
2019-01-19T11:57:52.378Z,66.90
2019-01-19T11:59:45.892Z,61.80
2019-01-19T12:00:45.428Z,65.80
2019-01-19T12:02:38.795Z,61.20
2019-01-19T12:03:38.789Z,60.50
2019-01-19T12:05:32.399Z,57.90
2019-01-19T12:06:32.392Z,59.10
2019-01-19T12:08:25.471Z,59.60
2019-01-19T12:09:25.469Z,55.80
2019-01-19T12:11:19.087Z,54.20
2019-01-19T12:12:19.111Z,57.80
2019-01-19T12:14:12.439Z,61.20
2019-01-19T12:15:12.206Z,57.30
2019-01-19T12:17:05.976Z,54.80
2019-01-19T12:18:05.545Z,57.70
2019-01-19T12:19:59.090Z,55.40
2019-01-19T12:20:58.900Z,51.60
2019-01-19T12:22:52.715Z,53.90
2019-01-19T12:23:52.243Z,54.00
2019-01-19T12:25:45.779Z,54.50
2019-01-19T12:26:45.767Z,54.70
2019-01-19T12:28:42.671Z,58.80
2019-01-19T12:29:38.931Z,54.00
2019-01-19T12:31:32.480Z,53.20
2019-01-19T12:32:32.253Z,52.80
2019-01-19T12:34:26.017Z,55.30
2019-01-19T12:35:25.553Z,50.10
2019-01-19T12:37:19.190Z,56.00
2019-01-19T12:38:19.140Z,56.20
2019-01-19T12:40:12.762Z,50.90
2019-01-19T12:41:12.490Z,54.50
2019-01-19T12:43:05.831Z,57.70
2019-01-19T12:44:05.884Z,55.30
2019-01-19T12:45:59.178Z,52.60
2019-01-19T12:46:58.943Z,51.70
2019-01-19T12:48:52.548Z,53.10
2019-01-19T12:49:52.307Z,57.80
2019-01-19T12:51:45.908Z,54.40
2019-01-19T12:52:45.640Z,53.70
2019-01-19T12:54:39.052Z,56.90
2019-01-19T12:55:39.257Z,56.00
2019-01-19T12:57:33.927Z,53.10
2019-01-19T12:58:32.931Z,48.50
2019-01-19T13:00:26.536Z,53.10
2019-01-19T13:01:26.240Z,53.50
2019-01-19T13:03:19.841Z,52.20
2019-01-19T13:04:19.843Z,51.00
2019-01-19T13:06:13.172Z,52.70
2019-01-19T13:07:13.157Z,50.50
2019-01-19T13:09:12.450Z,53.40
2019-01-19T13:10:06.536Z,52.10
2019-01-19T13:11:59.844Z,49.00
2019-01-19T13:12:59.601Z,51.00
2019-01-19T13:14:53.178Z,60.00
2019-01-19T13:15:53.178Z,53.30
2019-01-19T13:17:46.534Z,54.60
2019-01-19T13:18:46.331Z,57.10
2019-01-19T13:20:40.097Z,51.70
2019-01-19T13:21:39.918Z,52.90
2019-01-19T13:23:33.034Z,55.30
2019-01-19T13:24:33.022Z,53.40
2019-01-19T13:26:26.787Z,52.90
2019-01-19T13:27:26.330Z,53.30
2019-01-19T13:29:19.681Z,51.40
2019-01-19T13:30:19.929Z,48.90
2019-01-19T13:32:13.240Z,55.00
2019-01-19T13:33:13.050Z,53.70
2019-01-19T13:35:06.643Z,47.30
2019-01-19T13:36:06.641Z,52.40
2019-01-19T13:37:59.954Z,51.70
2019-01-19T13:38:59.945Z,54.50
2019-01-19T13:40:53.875Z,50.20
2019-01-19T13:41:53.323Z,50.50
2019-01-19T13:43:46.916Z,46.20
2019-01-19T13:44:46.396Z,47.30
2019-01-19T13:46:39.981Z,47.70
2019-01-19T13:47:39.981Z,50.70
2019-01-19T13:49:33.302Z,48.70
2019-01-19T13:50:33.318Z,45.70
2019-01-19T13:52:26.703Z,47.50
2019-01-19T13:53:26.426Z,42.90
2019-01-19T13:55:20.303Z,47.60
2019-01-19T13:56:20.022Z,47.30
2019-01-19T13:58:13.143Z,51.20
2019-01-19T13:59:13.131Z,48.80
2019-01-19T14:01:06.977Z,48.70
2019-01-19T14:02:06.475Z,44.70
2019-01-19T14:04:00.068Z,44.20
2019-01-19T14:04:59.838Z,48.10
2019-01-19T14:06:53.431Z,43.50
2019-01-19T14:07:53.194Z,48.80
2019-01-19T14:09:46.494Z,45.50
2019-01-19T14:10:46.796Z,50.20
2019-01-19T14:12:40.117Z,44.60
2019-01-19T14:13:39.835Z,44.10
2019-01-19T14:15:33.429Z,47.30
2019-01-19T14:16:33.462Z,46.40
2019-01-19T14:18:26.796Z,44.10
2019-01-19T14:19:26.524Z,45.10
2019-01-19T14:21:20.745Z,40.80
2019-01-19T14:22:20.722Z,46.40
2019-01-19T14:24:14.264Z,44.80
2019-01-19T14:25:14.298Z,43.40
2019-01-19T14:27:07.231Z,43.90
2019-01-19T14:28:06.930Z,44.70
2019-01-19T14:30:00.759Z,46.10
2019-01-19T14:31:00.287Z,45.00
2019-01-19T14:32:53.659Z,43.00
2019-01-19T14:33:53.872Z,42.40
2019-01-19T14:35:47.464Z,43.20
2019-01-19T14:36:47.172Z,39.70
2019-01-19T14:38:40.536Z,40.70
2019-01-19T14:39:40.306Z,44.00
2019-01-19T14:41:34.141Z,43.60
2019-01-19T14:42:33.869Z,42.10
2019-01-19T14:44:27.219Z,45.10
2019-01-19T14:45:27.238Z,45.40
2019-01-19T14:47:20.584Z,44.70
2019-01-19T14:48:20.365Z,43.00
2019-01-19T14:50:13.967Z,41.60
2019-01-19T14:51:13.703Z,42.60
2019-01-19T14:53:07.593Z,44.10
2019-01-19T14:54:07.263Z,43.30
2019-01-19T14:56:00.397Z,38.30
2019-01-19T14:57:00.341Z,45.50
2019-01-19T14:58:53.925Z,42.80
2019-01-19T14:59:53.691Z,43.40
2019-01-19T15:01:47.279Z,41.40
2019-01-19T15:02:47.288Z,40.10
2019-01-19T15:04:44.529Z,39.20
2019-01-19T15:05:40.605Z,40.30
2019-01-19T15:07:33.999Z,42.80
2019-01-19T15:08:33.724Z,41.90
2019-01-19T15:10:27.337Z,38.80
2019-01-19T15:11:27.345Z,41.70
2019-01-19T15:13:20.678Z,42.30
2019-01-19T15:14:20.435Z,39.80
2019-01-19T15:16:14.217Z,40.50
2019-01-19T15:17:14.034Z,40.20
2019-01-19T15:19:07.128Z,41.30
2019-01-19T15:20:07.124Z,39.10
2019-01-19T15:22:01.503Z,44.40
2019-01-19T15:23:00.712Z,42.80
2019-01-19T15:24:53.829Z,41.30
2019-01-19T15:25:54.044Z,41.90
2019-01-19T15:27:47.580Z,43.30
2019-01-19T15:28:47.350Z,42.60
2019-01-19T15:30:40.763Z,44.80
2019-01-19T15:31:40.459Z,42.70
2019-01-19T15:33:34.071Z,41.70
2019-01-19T15:34:34.086Z,41.60
2019-01-19T15:36:27.386Z,41.60
2019-01-19T15:37:27.173Z,43.00
2019-01-19T15:39:20.712Z,41.40
2019-01-19T15:40:20.738Z,40.40
2019-01-19T15:42:13.830Z,45.00
2019-01-19T15:43:14.060Z,40.40
2019-01-19T15:45:07.637Z,42.60
2019-01-19T15:46:07.214Z,43.50
2019-01-19T15:48:00.815Z,44.30
2019-01-19T15:49:00.761Z,45.40
2019-01-19T15:50:54.052Z,41.20
2019-01-19T15:51:53.906Z,40.90
2019-01-19T15:53:47.207Z,41.00
2019-01-19T15:54:47.453Z,48.40
2019-01-19T15:56:40.815Z,43.80
2019-01-19T15:57:40.826Z,38.90
2019-01-19T15:59:34.160Z,44.00
2019-01-19T16:00:33.927Z,43.20
2019-01-19T16:02:27.433Z,41.30
2019-01-19T16:03:27.250Z,43.20
2019-01-19T16:05:20.822Z,43.00
2019-01-19T16:06:20.793Z,41.80
2019-01-19T16:08:14.375Z,43.20
2019-01-19T16:09:18.185Z,43.90
2019-01-19T16:11:07.531Z,46.30
2019-01-19T16:12:07.509Z,39.30
2019-01-19T16:14:01.059Z,43.50
2019-01-19T16:15:00.599Z,44.70
2019-01-19T16:16:54.226Z,43.30
2019-01-19T16:17:54.223Z,39.70
2019-01-19T16:19:47.527Z,40.30
2019-01-19T16:20:47.565Z,38.20
2019-01-19T16:22:40.897Z,47.00
2019-01-19T16:23:40.647Z,43.60
2019-01-19T16:25:34.453Z,43.30
2019-01-19T16:26:34.253Z,44.30
2019-01-19T16:28:27.631Z,45.80
2019-01-19T16:29:27.362Z,45.20
2019-01-19T16:31:21.117Z,45.80
2019-01-19T16:32:20.895Z,44.90
2019-01-19T16:34:14.037Z,48.70
2019-01-19T16:35:14.044Z,49.10
2019-01-19T16:37:07.831Z,43.90
2019-01-19T16:38:07.383Z,46.70
2019-01-19T16:40:00.973Z,48.20
2019-01-19T16:41:00.732Z,51.50
2019-01-19T16:42:54.255Z,45.00
2019-01-19T16:43:54.032Z,46.00
2019-01-19T16:45:47.665Z,47.00
2019-01-19T16:46:47.610Z,46.60
2019-01-19T16:48:41.165Z,50.10
2019-01-19T16:49:40.701Z,50.40
2019-01-19T16:51:34.200Z,49.20
2019-01-19T16:52:34.066Z,47.20
2019-01-19T16:54:27.176Z,49.30
2019-01-19T16:55:26.939Z,48.80
2019-01-19T16:57:20.859Z,47.20
2019-01-19T16:58:20.517Z,54.40
2019-01-19T17:00:14.389Z,54.10
2019-01-19T17:01:14.409Z,49.20
2019-01-19T17:03:07.728Z,51.60
2019-01-19T17:04:07.737Z,45.70
2019-01-19T17:06:01.263Z,47.40
2019-01-19T17:07:01.114Z,49.70
2019-01-19T17:08:54.444Z,50.30
2019-01-19T17:09:54.164Z,50.30
2019-01-19T17:11:47.782Z,52.50
2019-01-19T17:12:47.768Z,51.60
2019-01-19T17:14:41.118Z,48.50
2019-01-19T17:15:41.129Z,46.10
2019-01-19T17:17:34.421Z,53.70
2019-01-19T17:18:34.182Z,53.00
2019-01-19T17:20:27.576Z,53.00
2019-01-19T17:21:27.560Z,53.10
2019-01-19T17:23:21.171Z,52.40
2019-01-19T17:24:20.883Z,52.10
2019-01-19T17:26:14.261Z,63.60
2019-01-19T17:27:14.246Z,55.60
2019-01-19T17:29:07.784Z,55.60
2019-01-19T17:30:07.813Z,61.40
2019-01-19T17:32:00.947Z,55.60
2019-01-19T17:33:01.145Z,56.90
2019-01-19T17:34:54.399Z,63.70
2019-01-19T17:35:54.267Z,59.50
2019-01-19T17:37:47.588Z,57.30
2019-01-19T17:38:47.570Z,59.30
2019-01-19T17:40:41.425Z,53.00
2019-01-19T17:41:40.949Z,59.50
2019-01-19T17:43:34.261Z,59.90
2019-01-19T17:44:34.521Z,71.20
2019-01-19T17:46:27.862Z,61.20
2019-01-19T17:47:27.847Z,56.60
2019-01-19T17:49:20.745Z,58.20
2019-01-19T17:50:20.502Z,60.40
2019-01-19T17:52:14.279Z,58.10
2019-01-19T17:53:13.810Z,58.60
2019-01-19T17:55:07.198Z,62.60
2019-01-19T17:56:07.375Z,58.40
2019-01-19T17:58:00.974Z,56.80
2019-01-19T17:59:00.497Z,58.10
2019-01-19T18:00:54.474Z,56.40
2019-01-19T18:01:54.139Z,54.40
2019-01-19T18:03:47.698Z,57.00
2019-01-19T18:04:47.476Z,55.90
2019-01-19T18:06:40.809Z,57.40
2019-01-19T18:07:40.764Z,64.40
2019-01-19T18:09:34.126Z,58.40
2019-01-19T18:10:33.921Z,60.30
2019-01-19T18:12:27.491Z,69.30
2019-01-19T18:13:27.219Z,65.80
2019-01-19T18:15:21.050Z,68.90
2019-01-19T18:16:20.847Z,71.60
2019-01-19T18:18:13.985Z,68.70
2019-01-19T18:19:14.180Z,68.00
2019-01-19T18:21:08.090Z,74.80
2019-01-19T18:22:07.317Z,72.10
2019-01-19T18:24:00.645Z,68.60
2019-01-19T18:25:00.917Z,71.30
2019-01-19T18:26:54.152Z,66.30
2019-01-19T18:27:53.981Z,75.30
2019-01-19T18:29:47.360Z,70.30
2019-01-19T18:30:47.316Z,70.50
2019-01-19T18:32:41.312Z,67.20
2019-01-19T18:33:40.687Z,70.40
2019-01-19T18:35:34.046Z,68.30